MMMX

Licenciado Benito Juarez International Airport

Mexico City, Mexico
METAR MMMX 170654Z 08003KT 10SM SKC 15/11 A3045 NOSIG RMK ISOL SC
Observed Flight Rules
Aug-17 @ 06:54 UTC (21 minutes ago) Visual Flight Rules
Wind Visibility Clouds
80° at 3 knots 10 miles
  • Clear skies
Temperatures Readings
Current 15°C / 59°F
Dewpoint 11°C / 52°F
Humidity 77%
Altimeter 30.45" Hg
Pressure 1031 hPa
Elevation 2238
METAR MMMX 170654Z 08003KT 10SM SKC 15/11 A3045 NOSIG RMK ISOL SC
Observed Flight Rules
Aug-17 @ 06:54 UTC
(21 minutes ago)
VFR
Wind Visibility
80° at 3 knots 10 miles
Clouds
  • Clear skies
Temperature Dewpoint
15°C / 59°F 11°C / 52°F
Humidity Altimeter Pressure
77% 30.45" Hg 1031 hPa